createdAt,value
2022-12-23T00:00:30.294Z,99940.75
2022-12-23T00:02:58.800Z,99942.25
2022-12-23T00:05:37.315Z,99928.53
2022-12-23T00:08:08.323Z,99922.97
2022-12-23T00:10:40.362Z,99923.81
2022-12-23T00:13:26.897Z,99915.22
2022-12-23T00:16:04.073Z,99916.91
2022-12-23T00:18:32.880Z,99913.72
2022-12-23T00:21:08.797Z,99907.94
2022-12-23T00:23:43.939Z,99906.13
2022-12-23T00:26:17.711Z,99894.38
2022-12-23T00:28:49.725Z,99900.66
2022-12-23T00:31:20.157Z,99897.28
2022-12-23T00:33:52.005Z,99892.19
2022-12-23T00:36:28.193Z,99898.38
2022-12-23T00:39:18.918Z,99894.38
2022-12-23T00:42:05.057Z,99892.03
2022-12-23T00:44:34.004Z,99886.94
2022-12-23T00:47:02.568Z,99885.63
2022-12-23T00:49:42.245Z,99885.44
2022-12-23T00:52:16.589Z,99884.16
2022-12-23T00:54:45.566Z,99886.56
2022-12-23T00:57:14.354Z,99888.88
2022-12-23T00:59:43.336Z,99894.03
2022-12-23T01:02:30.748Z,99896.19
2022-12-23T01:05:16.755Z,99895.84
2022-12-23T01:07:46.730Z,99901.44
2022-12-23T01:10:15.355Z,99902.94
2022-12-23T01:12:44.018Z,99907.06
2022-12-23T01:15:15.929Z,99905.41
2022-12-23T01:17:44.555Z,99900.38
2022-12-23T01:20:16.175Z,99897.41
2022-12-23T01:22:46.621Z,99905.09
2022-12-23T01:25:15.569Z,99905.75
2022-12-23T01:27:44.521Z,99901.34
2022-12-23T01:30:14.631Z,99895.34
2022-12-23T01:32:43.179Z,99903.31
2022-12-23T01:35:12.000Z,99905.97
2022-12-23T01:37:41.558Z,99897.06
2022-12-23T01:40:15.844Z,99898.81
2022-12-23T01:42:47.533Z,99906.28
2022-12-23T01:45:23.007Z,99904.81
2022-12-23T01:48:00.176Z,99908.97
2022-12-23T01:50:33.822Z,99903.53
2022-12-23T01:53:08.649Z,99908.53
2022-12-23T01:55:46.780Z,99913.03
2022-12-23T01:58:20.866Z,99903.78
2022-12-23T02:01:07.008Z,99896.22
2022-12-23T02:03:45.572Z,99905.81
2022-12-23T02:06:39.784Z,99905.47
2022-12-23T02:09:19.282Z,99913.44
2022-12-23T02:12:37.437Z,99913.25
2022-12-23T02:15:52.831Z,99918.78
2022-12-23T02:18:56.315Z,99923.13
2022-12-23T02:21:43.317Z,99916.63
2022-12-23T02:25:09.662Z,99920.81
2022-12-23T02:28:07.619Z,99919.72
2022-12-23T02:30:49.923Z,99915.56
2022-12-23T02:33:51.594Z,99918.97
2022-12-23T02:36:39.618Z,99925.16
2022-12-23T02:39:17.358Z,99929.63
2022-12-23T02:41:57.767Z,99924.06
2022-12-23T02:44:35.894Z,99919.56
2022-12-23T02:47:14.160Z,99917.44
2022-12-23T02:49:49.894Z,99914.69
2022-12-23T02:52:23.564Z,99911.28
2022-12-23T02:54:57.787Z,99919.06
2022-12-23T02:57:33.676Z,99919.06
2022-12-23T03:00:04.517Z,99916.09
2022-12-23T03:02:37.951Z,99918.22
2022-12-23T03:05:08.416Z,99914.72
2022-12-23T03:07:44.116Z,99921.09
2022-12-23T03:10:30.349Z,99928.88
2022-12-23T03:13:20.122Z,99931.84
2022-12-23T03:16:13.942Z,99947.78
2022-12-23T03:19:04.157Z,99950.41
2022-12-23T03:21:43.319Z,99943.97
2022-12-23T03:24:28.917Z,99947.94
2022-12-23T03:27:09.760Z,99946.34
2022-12-23T03:29:46.708Z,99949.75
2022-12-23T03:32:22.254Z,99947.13
2022-12-23T03:35:00.508Z,99949.88
2022-12-23T03:37:35.210Z,99947.88
2022-12-23T03:40:11.644Z,99952.97
2022-12-23T03:42:43.735Z,99945.31
2022-12-23T03:45:39.894Z,99943.41
2022-12-23T03:48:20.518Z,99943.41
2022-12-23T03:50:58.508Z,99937.56
2022-12-23T03:53:34.733Z,99945.91
2022-12-23T03:56:11.007Z,99938.59
2022-12-23T03:58:46.656Z,99942.09
2022-12-23T04:01:26.810Z,99945.63
2022-12-23T04:04:03.525Z,99935.59
2022-12-23T04:06:43.149Z,99942.28
2022-12-23T04:09:19.831Z,99946.75
2022-12-23T04:11:50.724Z,99937.09
2022-12-23T04:14:20.308Z,99942.50
2022-12-23T04:16:54.958Z,99931.88
2022-12-23T04:19:26.654Z,99934.53
2022-12-23T04:21:58.412Z,99937.91
2022-12-23T04:24:29.848Z,99931.63
2022-12-23T04:26:59.524Z,99932.13
2022-12-23T04:29:27.973Z,99939.75
2022-12-23T04:31:58.104Z,99935.03
2022-12-23T04:34:29.514Z,99940.88
2022-12-23T04:37:00.596Z,99940.13
2022-12-23T04:39:29.233Z,99943.78
2022-12-23T04:42:04.973Z,99953.44
2022-12-23T04:44:33.815Z,99946.94
2022-12-23T04:47:02.577Z,99946.19
2022-12-23T04:49:32.892Z,99958.09
2022-12-23T04:52:05.721Z,99961.63
2022-12-23T04:54:43.905Z,99961.28
2022-12-23T04:57:14.847Z,99950.13
2022-12-23T04:59:43.890Z,99953.75
2022-12-23T05:02:13.119Z,99947.81
2022-12-23T05:04:44.232Z,99948.50
2022-12-23T05:07:16.470Z,99950.13
2022-12-23T05:09:45.661Z,99942.22
2022-12-23T05:12:14.458Z,99945.53
2022-12-23T05:14:43.924Z,99954.69
2022-12-23T05:17:12.762Z,99962.22
2022-12-23T05:19:42.395Z,99957.75
2022-12-23T05:22:11.299Z,99956.91
2022-12-23T05:24:41.671Z,99952.44
2022-12-23T05:27:11.263Z,99955.19
2022-12-23T05:29:40.219Z,99957.16
2022-12-23T05:32:09.268Z,99962.78
2022-12-23T05:34:37.943Z,99949.88
2022-12-23T05:37:07.508Z,99955.84
2022-12-23T05:39:36.251Z,99955.00
2022-12-23T05:42:07.200Z,99950.88
2022-12-23T05:44:36.734Z,99951.81
2022-12-23T05:47:07.279Z,99946.72
2022-12-23T05:49:36.598Z,99954.38
2022-12-23T05:52:05.456Z,99963.50
2022-12-23T05:54:34.293Z,99958.50
2022-12-23T05:57:03.349Z,99961.78
2022-12-23T05:59:33.515Z,99963.59
2022-12-23T06:02:02.402Z,99970.75
2022-12-23T06:04:31.085Z,99982.88
2022-12-23T06:07:03.084Z,99980.66
2022-12-23T06:09:34.774Z,99994.50
2022-12-23T06:12:03.362Z,99998.09
2022-12-23T06:14:33.657Z,100000.78
2022-12-23T06:17:02.253Z,100001.53
2022-12-23T06:19:31.410Z,99994.50
2022-12-23T06:22:00.379Z,100000.78
2022-12-23T06:24:29.384Z,99995.88
2022-12-23T06:27:01.265Z,99998.09
2022-12-23T06:29:29.873Z,100005.91
2022-12-23T06:32:05.904Z,99996.09
2022-12-23T06:34:37.648Z,99983.72
2022-12-23T06:37:09.162Z,100007.91
2022-12-23T06:39:38.099Z,100008.09
2022-12-23T06:42:06.901Z,100004.81
2022-12-23T06:44:35.619Z,100013.88
2022-12-23T06:47:06.118Z,99996.72
2022-12-23T06:49:35.252Z,100007.81
2022-12-23T06:52:04.005Z,100005.91
2022-12-23T06:54:32.821Z,100003.94
2022-12-23T06:57:01.337Z,100012.19
2022-12-23T06:59:30.924Z,100007.81
2022-12-23T07:02:00.876Z,100016.75
2022-12-23T07:04:30.979Z,100016.75
2022-12-23T07:06:59.994Z,100028.06
2022-12-23T07:09:29.041Z,100022.06
2022-12-23T07:12:04.937Z,100029.41
2022-12-23T07:14:33.426Z,100021.88
2022-12-23T07:17:02.094Z,100026.97
2022-12-23T07:19:32.912Z,100023.56
2022-12-23T07:22:01.949Z,100028.16
2022-12-23T07:25:00.291Z,100026.97
2022-12-23T07:27:28.895Z,100031.44
2022-12-23T07:30:05.124Z,100040.63
2022-12-23T07:32:33.919Z,100050.50
2022-12-23T07:35:04.329Z,100046.78
2022-12-23T07:37:33.195Z,100049.03
2022-12-23T07:40:08.100Z,100050.22
2022-12-23T07:42:46.222Z,100062.78
2022-12-23T07:45:18.160Z,100059.78
2022-12-23T07:47:56.638Z,100057.00
2022-12-23T07:50:37.660Z,100058.47
2022-12-23T07:53:26.436Z,100064.75
2022-12-23T07:56:01.863Z,100064.91
2022-12-23T07:58:30.762Z,100066.72
2022-12-23T08:01:09.752Z,100076.16
2022-12-23T08:03:39.793Z,100080.53
2022-12-23T08:06:13.779Z,100077.88
2022-12-23T08:08:45.573Z,100077.13
2022-12-23T08:11:16.518Z,100085.13
2022-12-23T08:13:48.321Z,100079.59
2022-12-23T08:16:17.229Z,100080.94
2022-12-23T08:18:46.739Z,100080.44
2022-12-23T08:21:22.356Z,100078.50
2022-12-23T08:23:52.359Z,100084.16
2022-12-23T08:26:23.653Z,100089.28
2022-12-23T08:28:57.357Z,100100.88
2022-12-23T08:31:32.035Z,100092.16
2022-12-23T08:34:04.059Z,100090.53
2022-12-23T08:36:41.170Z,100098.78
2022-12-23T08:39:21.066Z,100115.69
2022-12-23T08:41:51.430Z,100135.19
2022-12-23T08:44:21.429Z,100136.25
2022-12-23T08:46:50.495Z,100137.00
2022-12-23T08:49:20.614Z,100147.75
2022-12-23T08:51:51.378Z,100139.25
2022-12-23T08:54:20.637Z,100155.03
2022-12-23T08:56:49.117Z,100134.34
2022-12-23T08:59:20.129Z,100137.44
2022-12-23T09:01:49.780Z,100145.00
2022-12-23T09:04:18.947Z,100159.69
2022-12-23T09:06:48.996Z,100153.84
2022-12-23T09:09:18.222Z,100141.38
2022-12-23T09:11:47.614Z,100154.72
2022-12-23T09:14:18.443Z,100155.47
2022-12-23T09:16:47.165Z,100150.56
2022-12-23T09:19:15.732Z,100154.72
2022-12-23T09:21:47.878Z,100162.69
2022-12-23T09:24:17.976Z,100165.03
2022-12-23T09:26:46.885Z,100166.53
2022-12-23T09:29:15.480Z,100164.81
2022-12-23T09:31:47.170Z,100164.50
2022-12-23T09:34:16.078Z,100174.31
2022-12-23T09:36:46.286Z,100164.81
2022-12-23T09:39:18.310Z,100169.94
2022-12-23T09:42:06.420Z,100164.16
2022-12-23T09:45:09.826Z,100179.72
2022-12-23T09:47:42.737Z,100185.03
2022-12-23T09:50:27.416Z,100178.88
2022-12-23T09:53:07.673Z,100177.91
2022-12-23T09:55:51.290Z,100181.22
2022-12-23T09:58:45.130Z,100178.16
2022-12-23T10:01:31.355Z,100186.47
2022-12-23T10:04:37.740Z,100181.84
2022-12-23T10:07:37.577Z,100179.63
2022-12-23T10:10:18.044Z,100181.34
2022-12-23T10:13:02.357Z,100186.56
2022-12-23T10:15:42.226Z,100186.66
2022-12-23T10:18:23.123Z,100176.94
2022-12-23T10:21:01.729Z,100182.06
2022-12-23T10:23:37.734Z,100186.53
2022-12-23T10:26:25.584Z,100188.09
2022-12-23T10:29:21.271Z,100197.91
2022-12-23T10:32:34.051Z,100192.66
2022-12-23T10:35:23.487Z,100187.69
2022-12-23T10:38:04.265Z,100185.22
2022-12-23T10:40:51.591Z,100196.50
2022-12-23T10:43:33.126Z,100190.56
2022-12-23T10:46:30.110Z,100193.50
2022-12-23T10:49:13.408Z,100201.28
2022-12-23T10:51:51.127Z,100195.75
2022-12-23T10:54:27.775Z,100198.41
2022-12-23T10:57:00.131Z,100190.56
2022-12-23T10:59:33.083Z,100192.22
2022-12-23T11:02:22.514Z,100201.22
2022-12-23T11:04:56.182Z,100193.94
2022-12-23T11:07:46.671Z,100194.03
2022-12-23T11:10:22.062Z,100199.34
2022-12-23T11:12:56.895Z,100192.84
2022-12-23T11:15:33.615Z,100188.38
2022-12-23T11:18:22.291Z,100188.13
2022-12-23T11:21:07.074Z,100184.81
2022-12-23T11:23:37.574Z,100190.41
2022-12-23T11:26:10.659Z,100186.66
2022-12-23T11:28:49.568Z,100190.59
2022-12-23T11:31:28.718Z,100194.13
2022-12-23T11:34:02.890Z,100195.63
2022-12-23T11:36:37.373Z,100197.03
2022-12-23T11:39:16.415Z,100199.84
2022-12-23T11:41:49.181Z,100186.97
2022-12-23T11:44:30.861Z,100191.00
2022-12-23T11:47:32.730Z,100192.56
2022-12-23T11:50:26.038Z,100194.06
2022-12-23T11:53:01.876Z,100188.03
2022-12-23T11:55:39.788Z,100191.44
2022-12-23T11:58:22.842Z,100201.88
2022-12-23T12:00:59.727Z,100192.31
2022-12-23T12:03:33.721Z,100189.94
2022-12-23T12:06:07.955Z,100183.31
2022-12-23T12:08:40.151Z,100186.00
2022-12-23T12:11:16.484Z,100188.06
2022-12-23T12:14:03.728Z,100196.56
2022-12-23T12:17:01.184Z,100181.50
2022-12-23T12:19:37.075Z,100182.84
2022-12-23T12:22:16.005Z,100177.66
2022-12-23T12:24:51.752Z,100180.38
2022-12-23T12:27:33.312Z,100169.34
2022-12-23T12:30:08.853Z,100166.97
2022-12-23T12:32:50.227Z,100174.91
2022-12-23T12:35:28.249Z,100168.88
2022-12-23T12:38:14.635Z,100173.13
2022-12-23T12:40:49.831Z,100174.06
2022-12-23T12:43:28.971Z,100172.47
2022-12-23T12:46:28.707Z,100173.78
2022-12-23T12:49:07.373Z,100174.97
2022-12-23T12:51:53.468Z,100175.44
2022-12-23T12:54:36.709Z,100178.56
2022-12-23T12:57:05.563Z,100182.34
2022-12-23T12:59:38.228Z,100188.38
2022-12-23T13:02:55.119Z,100195.84
2022-12-23T13:06:01.961Z,100195.84
2022-12-23T13:08:52.675Z,100187.31
2022-12-23T13:11:30.048Z,100184.34
2022-12-23T13:14:14.443Z,100192.94
2022-12-23T13:16:51.535Z,100191.75
2022-12-23T13:19:34.388Z,100188.38
2022-12-23T13:22:11.715Z,100190.28
2022-12-23T13:24:58.541Z,100186.88
2022-12-23T13:27:35.586Z,100185.81
2022-12-23T13:30:12.246Z,100180.69
2022-12-23T13:33:10.385Z,100183.34
2022-12-23T13:36:14.278Z,100170.66
2022-12-23T13:39:12.741Z,100152.28
2022-12-23T13:41:46.592Z,100152.41
2022-12-23T13:44:19.543Z,100154.97
2022-12-23T13:46:59.841Z,100153.75
2022-12-23T13:49:49.969Z,100147.56
2022-12-23T13:52:30.718Z,100136.28
2022-12-23T13:55:20.192Z,100132.31
2022-12-23T13:57:59.767Z,100121.25
2022-12-23T14:00:34.226Z,100121.44
2022-12-23T14:03:20.363Z,100113.47
2022-12-23T14:05:51.132Z,100125.22
2022-12-23T14:08:43.452Z,100129.44
2022-12-23T14:11:23.497Z,100122.81
2022-12-23T14:14:00.077Z,100141.31
2022-12-23T14:16:50.578Z,100139.69
2022-12-23T14:20:05.851Z,100140.06
2022-12-23T14:23:07.263Z,100136.13
2022-12-23T14:26:16.094Z,100140.44
2022-12-23T14:29:15.493Z,100142.94
2022-12-23T14:31:58.253Z,100149.03
2022-12-23T14:34:32.054Z,100144.41
2022-12-23T14:37:36.364Z,100150.25
2022-12-23T14:41:00.558Z,100149.41
2022-12-23T14:43:59.500Z,100158.66
2022-12-23T14:47:01.637Z,100161.47
2022-12-23T14:49:44.138Z,100160.50
2022-12-23T14:52:51.450Z,100161.41
2022-12-23T14:55:49.824Z,100173.91
2022-12-23T14:59:10.334Z,100179.59
2022-12-23T15:01:45.308Z,100175.31
2022-12-23T15:04:21.894Z,100183.94
2022-12-23T15:06:57.635Z,100174.56
2022-12-23T15:09:30.061Z,100176.94
2022-12-23T15:12:06.307Z,100193.38
2022-12-23T15:14:43.590Z,100189.28
2022-12-23T15:17:29.971Z,100195.75
2022-12-23T15:20:15.587Z,100189.06
2022-12-23T15:22:46.854Z,100181.75
2022-12-23T15:25:24.740Z,100184.56
2022-12-23T15:28:01.179Z,100180.47
2022-12-23T15:30:35.108Z,100190.03
2022-12-23T15:33:35.062Z,100190.06
2022-12-23T15:35:59.353Z,100184.94
2022-12-23T15:38:37.381Z,100183.84
2022-12-23T15:41:14.975Z,100176.72
2022-12-23T15:43:45.918Z,100181.81
2022-12-23T15:46:25.327Z,100185.78
2022-12-23T15:49:01.859Z,100185.38
2022-12-23T15:52:05.821Z,100196.53
2022-12-23T15:54:32.828Z,100194.34
2022-12-23T15:57:05.042Z,100201.59
2022-12-23T15:59:38.913Z,100205.94
2022-12-23T16:02:58.388Z,100206.59
2022-12-23T16:05:08.951Z,100208.47
2022-12-23T16:07:42.012Z,100202.38
2022-12-23T16:10:17.305Z,100206.34
2022-12-23T16:12:46.267Z,100214.44
2022-12-23T16:15:27.116Z,100206.78
2022-12-23T16:18:13.818Z,100202.72
2022-12-23T16:20:46.866Z,100210.28
2022-12-23T16:23:19.140Z,100203.34
2022-12-23T16:25:51.013Z,100193.09
2022-12-23T16:28:24.638Z,100192.91
2022-12-23T16:30:59.554Z,100181.84
2022-12-23T16:33:40.363Z,100190.06
2022-12-23T16:36:23.660Z,100190.22
2022-12-23T16:39:00.011Z,100183.78
2022-12-23T16:41:28.638Z,100183.56
2022-12-23T16:43:59.445Z,100182.41
2022-12-23T16:46:38.690Z,100185.47
2022-12-23T16:49:11.105Z,100183.81
2022-12-23T16:51:41.780Z,100175.97
2022-12-23T16:54:17.565Z,100176.31
2022-12-23T16:56:47.707Z,100172.16
2022-12-23T16:59:17.167Z,100175.75
2022-12-23T17:01:49.330Z,100179.41
2022-12-23T17:04:18.425Z,100177.53
2022-12-23T17:06:47.750Z,100177.69
2022-12-23T17:09:17.744Z,100176.28
2022-12-23T17:11:50.189Z,100172.38
2022-12-23T17:14:21.898Z,100176.13
2022-12-23T17:16:52.612Z,100176.00
2022-12-23T17:19:28.533Z,100174.28
2022-12-23T17:22:04.532Z,100165.91
2022-12-23T17:24:34.635Z,100174.75
2022-12-23T17:27:03.219Z,100172.19
2022-12-23T17:29:31.763Z,100171.69
2022-12-23T17:32:00.977Z,100170.19
2022-12-23T17:34:29.586Z,100169.34
2022-12-23T17:37:02.183Z,100166.81
2022-12-23T17:39:30.859Z,100162.34
2022-12-23T17:42:04.306Z,100169.13
2022-12-23T17:44:32.894Z,100157.84
2022-12-23T17:47:02.347Z,100161.94
2022-12-23T17:49:30.940Z,100157.69
2022-12-23T17:52:02.363Z,100165.81
2022-12-23T17:54:30.904Z,100160.69
2022-12-23T17:57:04.110Z,100154.66
2022-12-23T17:59:32.834Z,100151.06
2022-12-23T18:02:01.660Z,100156.13
2022-12-23T18:04:30.227Z,100156.91
2022-12-23T18:06:59.254Z,100162.84
2022-12-23T18:09:30.360Z,100157.31
2022-12-23T18:12:01.801Z,100157.09
2022-12-23T18:14:32.736Z,100152.75
2022-12-23T18:17:04.469Z,100149.34
2022-12-23T18:19:33.421Z,100153.75
2022-12-23T18:22:02.914Z,100166.94
2022-12-23T18:24:31.450Z,100177.25
2022-12-23T18:27:03.396Z,100177.25
2022-12-23T18:29:33.332Z,100180.00
2022-12-23T18:32:02.721Z,100173.75
2022-12-23T18:34:31.277Z,100168.66
2022-12-23T18:37:00.355Z,100167.09
2022-12-23T18:39:29.059Z,100173.50
2022-12-23T18:41:58.202Z,100169.56
2022-12-23T18:44:29.498Z,100162.03
2022-12-23T18:46:59.760Z,100162.03
2022-12-23T18:49:32.115Z,100166.53
2022-12-23T18:52:00.668Z,100168.16
2022-12-23T18:54:29.876Z,100175.88
2022-12-23T18:57:01.491Z,100177.06
2022-12-23T18:59:31.662Z,100174.94
2022-12-23T19:02:05.242Z,100168.00
2022-12-23T19:04:34.228Z,100172.75
2022-12-23T19:07:02.832Z,100174.34
2022-12-23T19:09:31.630Z,100171.59
2022-12-23T19:12:00.251Z,100174.19
2022-12-23T19:14:28.935Z,100174.19
2022-12-23T19:17:01.992Z,100178.31
2022-12-23T19:19:32.065Z,100178.97
2022-12-23T19:22:00.889Z,100184.06
2022-12-23T19:24:29.748Z,100197.66
2022-12-23T19:26:58.900Z,100190.84
2022-12-23T19:29:30.907Z,100194.69
2022-12-23T19:31:59.703Z,100199.44
2022-12-23T19:34:28.369Z,100200.19
2022-12-23T19:36:58.759Z,100196.25
2022-12-23T19:39:27.991Z,100199.53
2022-12-23T19:41:56.980Z,100202.75
2022-12-23T19:44:26.098Z,100199.41
2022-12-23T19:46:55.170Z,100208.41
2022-12-23T19:49:23.876Z,100205.25
2022-12-23T19:51:52.706Z,100212.69
2022-12-23T19:54:22.948Z,100212.09
2022-12-23T19:56:52.715Z,100216.34
2022-12-23T19:59:22.040Z,100212.75
2022-12-23T20:01:50.785Z,100208.66
2022-12-23T20:04:19.954Z,100212.00
2022-12-23T20:06:48.592Z,100213.28
2022-12-23T20:09:17.398Z,100216.28
2022-12-23T20:11:49.885Z,100217.22
2022-12-23T20:14:21.877Z,100209.06
2022-12-23T20:16:50.667Z,100210.63
2022-12-23T20:19:23.116Z,100206.94
2022-12-23T20:21:52.250Z,100206.94
2022-12-23T20:24:20.933Z,100211.22
2022-12-23T20:26:51.300Z,100210.78
2022-12-23T20:29:19.853Z,100212.56
2022-12-23T20:31:48.494Z,100209.66
2022-12-23T20:34:19.286Z,100207.50
2022-12-23T20:36:48.062Z,100220.25
2022-12-23T20:39:16.641Z,100215.88
2022-12-23T20:41:45.587Z,100208.88
2022-12-23T20:47:04.439Z,100209.66
2022-12-23T20:49:33.195Z,100208.13
2022-12-23T20:52:02.547Z,100218.16
2022-12-23T20:54:33.521Z,100202.63
2022-12-23T20:57:05.096Z,100204.84
2022-12-23T20:59:35.211Z,100208.53
2022-12-23T21:02:03.823Z,100203.69
2022-12-23T21:04:32.433Z,100200.56
2022-12-23T21:07:01.195Z,100214.19
2022-12-23T21:09:30.347Z,100204.00
2022-12-23T21:11:59.149Z,100204.94
2022-12-23T21:14:27.858Z,100204.84
2022-12-23T21:17:00.339Z,100197.00
2022-12-23T21:19:29.295Z,100198.66
2022-12-23T21:22:01.555Z,100208.25
2022-12-23T21:24:30.403Z,100198.78
2022-12-23T21:27:02.440Z,100204.25
2022-12-23T21:29:30.934Z,100206.03
2022-12-23T21:32:01.219Z,100213.22
2022-12-23T21:34:30.071Z,100209.97
2022-12-23T21:36:59.310Z,100209.34
2022-12-23T21:39:28.590Z,100208.25
2022-12-23T21:41:57.780Z,100210.25
2022-12-23T21:44:27.137Z,100217.69
2022-12-23T21:46:58.993Z,100218.16
2022-12-23T21:49:29.417Z,100222.88
2022-12-23T21:51:58.630Z,100216.09
2022-12-23T21:54:27.242Z,100211.72
2022-12-23T21:56:57.840Z,100219.03
2022-12-23T21:59:32.832Z,100211.22
2022-12-23T22:02:03.524Z,100211.44
2022-12-23T22:04:33.440Z,100214.94
2022-12-23T22:07:01.934Z,100218.88
2022-12-23T22:09:30.813Z,100220.16
2022-12-23T22:12:04.128Z,100215.00
2022-12-23T22:14:32.762Z,100220.56
2022-12-23T22:17:01.408Z,100216.44
2022-12-23T22:19:30.334Z,100216.72
2022-12-23T22:22:00.324Z,100213.28
2022-12-23T22:24:28.815Z,100218.66
2022-12-23T22:26:59.199Z,100219.69
2022-12-23T22:29:28.516Z,100222.16
2022-12-23T22:32:00.080Z,100219.13
2022-12-23T22:34:29.094Z,100230.56
2022-12-23T22:36:59.383Z,100225.09
2022-12-23T22:39:28.245Z,100245.97
2022-12-23T22:41:59.469Z,100234.28
2022-12-23T22:44:30.649Z,100241.69
2022-12-23T22:46:59.789Z,100246.84
2022-12-23T22:49:31.499Z,100247.25
2022-12-23T22:52:01.699Z,100244.84
2022-12-23T22:54:30.371Z,100241.13
2022-12-23T22:56:59.105Z,100243.69
2022-12-23T22:59:28.632Z,100241.19
2022-12-23T23:02:00.600Z,100245.75
2022-12-23T23:04:29.279Z,100252.59
2022-12-23T23:07:02.497Z,100247.84
2022-12-23T23:09:31.118Z,100242.56
2022-12-23T23:11:59.998Z,100244.28
2022-12-23T23:14:48.759Z,100250.19
2022-12-23T23:17:17.364Z,100250.41
2022-12-23T23:19:45.848Z,100250.91
2022-12-23T23:22:15.878Z,100251.69
2022-12-23T23:24:44.544Z,100246.41
2022-12-23T23:27:14.199Z,100244.28
2022-12-23T23:29:43.186Z,100256.97
2022-12-23T23:32:12.854Z,100261.66
2022-12-23T23:34:42.324Z,100254.38
2022-12-23T23:37:11.031Z,100247.25
2022-12-23T23:39:40.929Z,100246.97
2022-12-23T23:42:12.598Z,100264.66
2022-12-23T23:44:41.283Z,100259.38
2022-12-23T23:47:09.926Z,100261.59
2022-12-23T23:49:38.669Z,100267.78
2022-12-23T23:52:07.325Z,100266.22
2022-12-23T23:54:36.364Z,100272.72
2022-12-23T23:57:06.438Z,100273.63
2022-12-23T23:59:35.138Z,100266.91
